createdAt,value
2023-03-06T00:00:00.106Z,9.7
2023-03-06T00:05:00.120Z,10.6
2023-03-06T00:10:00.161Z,10.9
2023-03-06T00:15:00.130Z,11.3
2023-03-06T00:20:00.137Z,11.7
2023-03-06T00:25:00.129Z,11.7
2023-03-06T00:30:00.139Z,11
2023-03-06T00:35:00.126Z,13.7
2023-03-06T00:40:00.142Z,9.4
2023-03-06T00:45:00.194Z,10
2023-03-06T00:50:00.136Z,11.7
2023-03-06T00:55:00.151Z,11.7
2023-03-06T01:00:00.145Z,11.2
2023-03-06T01:05:00.123Z,9.2
2023-03-06T01:10:00.160Z,9.6
2023-03-06T01:15:00.120Z,10.8
2023-03-06T01:20:00.133Z,10.2
2023-03-06T01:25:00.136Z,10.2
2023-03-06T01:30:00.113Z,10.6
2023-03-06T01:35:00.096Z,11.8
2023-03-06T01:40:00.107Z,11.8
2023-03-06T01:45:00.126Z,13.5
2023-03-06T01:50:00.131Z,10.7
2023-03-06T01:55:00.112Z,10.7
2023-03-06T02:00:00.128Z,12.8
2023-03-06T02:05:00.140Z,9.7
2023-03-06T02:10:00.145Z,14.1
2023-03-06T02:15:00.116Z,11.3
2023-03-06T02:20:00.119Z,13.8
2023-03-06T02:25:00.160Z,13.8
2023-03-06T02:30:00.116Z,10.2
2023-03-06T02:35:00.134Z,11.7
2023-03-06T02:40:00.148Z,13.9
2023-03-06T02:45:00.162Z,12.8
2023-03-06T02:50:00.154Z,12.5
2023-03-06T02:55:00.132Z,12.5
2023-03-06T03:00:00.126Z,11.8
2023-03-06T03:05:00.130Z,13.1
2023-03-06T03:10:00.171Z,10.6
2023-03-06T03:15:00.107Z,13.8
2023-03-06T03:20:00.128Z,11.3
2023-03-06T03:25:00.112Z,11.3
2023-03-06T03:30:00.152Z,13
2023-03-06T03:35:00.128Z,13.7
2023-03-06T03:40:00.135Z,11.7
2023-03-06T03:45:00.144Z,12.9
2023-03-06T03:50:00.136Z,13.2
2023-03-06T03:55:00.113Z,13.2
2023-03-06T04:00:00.111Z,18
2023-03-06T04:05:00.195Z,13.1
2023-03-06T04:10:00.137Z,14.5
2023-03-06T04:15:00.134Z,14.9
2023-03-06T04:20:00.117Z,14.2
2023-03-06T04:25:00.126Z,14.2
2023-03-06T04:30:00.200Z,16.1
2023-03-06T04:35:00.115Z,15.2
2023-03-06T04:40:00.127Z,16.7
2023-03-06T04:45:00.162Z,16.1
2023-03-06T04:50:00.155Z,21.7
2023-03-06T04:55:00.134Z,21.7
2023-03-06T05:00:00.128Z,19.2
2023-03-06T05:05:00.124Z,17
2023-03-06T05:10:00.147Z,20
2023-03-06T05:15:00.128Z,22.5
2023-03-06T05:20:00.154Z,22.7
2023-03-06T05:25:00.142Z,22.7
2023-03-06T05:30:00.100Z,20.8
2023-03-06T05:35:00.403Z,23.5
2023-03-06T05:40:00.108Z,24.5
2023-03-06T05:45:00.127Z,29.5
2023-03-06T05:50:00.177Z,23.9
2023-03-06T05:55:00.118Z,23.9
2023-03-06T06:00:00.125Z,19.9
2023-03-06T06:05:00.125Z,21.5
2023-03-06T06:10:01.797Z,19.7
2023-03-06T06:15:00.135Z,17.1
2023-03-06T06:20:00.150Z,16.6
2023-03-06T06:25:00.132Z,16.6
2023-03-06T06:30:00.132Z,17
2023-03-06T06:35:00.126Z,16.2
2023-03-06T06:40:00.130Z,18.9
2023-03-06T06:45:00.105Z,19.4
2023-03-06T06:50:00.149Z,20.9
2023-03-06T06:55:00.124Z,20.9
2023-03-06T07:00:00.168Z,20.7
2023-03-06T07:05:04.447Z,19.7
2023-03-06T07:10:00.104Z,22
2023-03-06T07:15:00.151Z,18.2
2023-03-06T07:20:00.143Z,19.4
2023-03-06T07:25:00.127Z,19.4
2023-03-06T07:30:00.151Z,20.3
2023-03-06T07:35:17.325Z,22.3
2023-03-06T07:40:00.124Z,22.5
2023-03-06T07:45:00.134Z,20.8
2023-03-06T07:50:00.122Z,18.6
2023-03-06T07:55:00.154Z,18.6
2023-03-06T08:00:00.131Z,21.5
2023-03-06T08:05:00.137Z,20
2023-03-06T08:10:00.182Z,21.8
2023-03-06T08:15:00.122Z,25.7
2023-03-06T08:20:00.117Z,21.2
2023-03-06T08:25:00.120Z,21.2
2023-03-06T08:30:00.120Z,19.5
2023-03-06T08:35:00.098Z,21.6
2023-03-06T08:40:00.121Z,20.3
2023-03-06T08:45:00.134Z,21.7
2023-03-06T08:50:00.740Z,21.2
2023-03-06T08:55:00.124Z,21.2
2023-03-06T09:00:00.114Z,21.5
2023-03-06T09:05:00.109Z,22.1
2023-03-06T09:10:00.110Z,20.4
2023-03-06T09:15:00.145Z,20.4
2023-03-06T09:20:00.139Z,20.7
2023-03-06T09:25:00.127Z,20.7
2023-03-06T09:30:00.155Z,19
2023-03-06T09:35:00.137Z,19
2023-03-06T09:40:00.206Z,21.9
2023-03-06T09:45:00.176Z,21.3
2023-03-06T09:50:00.135Z,15.8
2023-03-06T09:55:00.162Z,15.8
2023-03-06T10:00:02.103Z,20
2023-03-06T10:05:00.221Z,18.9
2023-03-06T10:10:00.099Z,16.9
2023-03-06T10:15:00.102Z,16.3
2023-03-06T10:20:00.115Z,18
2023-03-06T10:25:00.136Z,18
2023-03-06T10:30:03.478Z,15.7
2023-03-06T10:35:00.117Z,16
2023-03-06T10:40:00.151Z,17.7
2023-03-06T10:45:00.106Z,15.9
2023-03-06T10:50:00.137Z,17.3
2023-03-06T10:55:00.132Z,17.3
2023-03-06T11:00:00.118Z,15.6
2023-03-06T11:05:00.149Z,17.9
2023-03-06T11:10:00.124Z,18.2
2023-03-06T11:15:00.106Z,18.7
2023-03-06T11:20:00.108Z,19.2
2023-03-06T11:25:00.118Z,19.2
2023-03-06T11:30:00.152Z,15.8
2023-03-06T11:35:00.238Z,18.7
2023-03-06T11:40:00.154Z,17.3
2023-03-06T11:45:00.806Z,17.7
2023-03-06T11:50:00.135Z,17.9
2023-03-06T11:55:00.138Z,17.9
2023-03-06T12:00:00.141Z,17.5
2023-03-06T12:05:00.315Z,19.3
2023-03-06T12:10:00.127Z,16.1
2023-03-06T12:15:00.406Z,15.3
2023-03-06T12:20:00.128Z,13.7
2023-03-06T12:25:00.115Z,13.7
2023-03-06T12:30:00.166Z,12.5
2023-03-06T12:35:00.200Z,15.1
2023-03-06T12:40:00.193Z,16.9
2023-03-06T12:45:00.207Z,18.5
2023-03-06T12:50:00.161Z,16.1
2023-03-06T12:55:00.203Z,16.1
2023-03-06T13:00:00.148Z,19.2
2023-03-06T13:05:00.266Z,17.3
2023-03-06T13:10:00.129Z,24.2
2023-03-06T13:15:00.176Z,17.4
2023-03-06T13:20:00.150Z,18.2
2023-03-06T13:25:03.592Z,18.2
2023-03-06T13:30:00.125Z,18.1
2023-03-06T13:35:00.139Z,19.3
2023-03-06T13:40:00.135Z,21.2
2023-03-06T13:45:00.123Z,18
2023-03-06T13:50:00.132Z,17
2023-03-06T13:55:00.140Z,17
2023-03-06T14:00:08.523Z,19.6
2023-03-06T14:05:00.135Z,18.5
2023-03-06T14:10:00.141Z,14.7
2023-03-06T14:15:00.119Z,17.2
2023-03-06T14:20:00.127Z,15.9
2023-03-06T14:25:00.138Z,15.9
2023-03-06T14:30:00.138Z,16.7
2023-03-06T14:35:00.144Z,15.4
2023-03-06T14:40:00.144Z,15.4
2023-03-06T14:45:00.134Z,16.2
2023-03-06T14:50:00.127Z,15.6
2023-03-06T14:55:00.140Z,15.6
2023-03-06T15:00:00.113Z,16.6
2023-03-06T15:05:00.149Z,16.3
2023-03-06T15:10:00.148Z,16.9
2023-03-06T15:15:00.151Z,16.4
2023-03-06T15:20:00.128Z,33.5
2023-03-06T15:25:00.152Z,33.5
2023-03-06T15:30:00.124Z,33.3
2023-03-06T15:35:00.126Z,38.3
2023-03-06T15:40:00.129Z,31.3
2023-03-06T15:45:00.144Z,18.8
2023-03-06T15:50:00.179Z,16.2
2023-03-06T15:55:00.143Z,16.2
2023-03-06T16:00:00.155Z,16.7
2023-03-06T16:05:00.126Z,18.3
2023-03-06T16:10:00.124Z,17
2023-03-06T16:15:00.127Z,16.2
2023-03-06T16:20:00.135Z,17.9
2023-03-06T16:25:00.119Z,17.9
2023-03-06T16:30:00.121Z,17.7
2023-03-06T16:35:00.096Z,21.4
2023-03-06T16:40:00.103Z,18.1
2023-03-06T16:45:00.117Z,19.3
2023-03-06T16:50:00.181Z,18
2023-03-06T16:55:00.125Z,18
2023-03-06T17:00:00.102Z,40
2023-03-06T17:05:00.143Z,19
2023-03-06T17:10:00.122Z,19.9
2023-03-06T17:15:00.129Z,18.9
2023-03-06T17:20:00.113Z,16.9
2023-03-06T17:25:00.117Z,16.9
2023-03-06T17:30:00.257Z,19.9
2023-03-06T17:35:00.149Z,20.9
2023-03-06T17:40:00.190Z,20.1
2023-03-06T17:45:00.103Z,20
2023-03-06T17:50:00.210Z,19.3
2023-03-06T17:55:00.096Z,19.3
2023-03-06T18:00:00.250Z,20.5
2023-03-06T18:05:00.166Z,18.1
2023-03-06T18:10:00.142Z,15.5
2023-03-06T18:15:00.108Z,16.4
2023-03-06T18:20:00.096Z,18.4
2023-03-06T18:25:00.111Z,18.4
2023-03-06T18:30:00.125Z,18.3
2023-03-06T18:35:00.115Z,17.9
2023-03-06T18:40:00.115Z,19.8
2023-03-06T18:45:00.100Z,21
2023-03-06T18:50:00.105Z,20.5
2023-03-06T18:55:00.095Z,20.5
2023-03-06T19:00:00.115Z,21.6
2023-03-06T19:05:00.108Z,19.8
2023-03-06T19:10:00.124Z,20.6
2023-03-06T19:15:00.108Z,19.6
2023-03-06T19:20:00.120Z,19.1
2023-03-06T19:25:01.654Z,19.1
2023-03-06T19:30:00.136Z,21.4
2023-03-06T19:35:00.108Z,20.5
2023-03-06T19:40:00.133Z,20.5
2023-03-06T19:45:00.137Z,22.6
2023-03-06T19:50:00.129Z,20.4
2023-03-06T19:55:00.139Z,20.4
2023-03-06T20:00:00.154Z,24
2023-03-06T20:05:00.156Z,23.4
2023-03-06T20:10:00.129Z,22.7
2023-03-06T20:15:00.164Z,22.4
2023-03-06T20:20:00.110Z,26.3
2023-03-06T20:25:00.110Z,26.3
2023-03-06T20:30:00.130Z,25.6
2023-03-06T20:35:00.130Z,23.2
2023-03-06T20:40:00.115Z,22.3
2023-03-06T20:45:00.100Z,22.4
2023-03-06T20:50:00.123Z,22.5
2023-03-06T20:55:00.110Z,22.5
2023-03-06T21:00:00.142Z,24.3
2023-03-06T21:05:00.210Z,23.6
2023-03-06T21:10:00.108Z,24.5
2023-03-06T21:15:00.211Z,22.5
2023-03-06T21:20:00.161Z,22.7
2023-03-06T21:25:00.114Z,22.7
2023-03-06T21:30:00.106Z,25.9
2023-03-06T21:35:00.144Z,24.8
2023-03-06T21:40:00.134Z,26.9
2023-03-06T21:45:00.139Z,23.8
2023-03-06T21:50:00.139Z,23.7
2023-03-06T21:55:00.162Z,23.7
2023-03-06T22:00:00.127Z,25.2
2023-03-06T22:05:00.128Z,24.6
2023-03-06T22:10:00.129Z,22.9
2023-03-06T22:15:00.113Z,22.4
2023-03-06T22:20:00.143Z,22.8
2023-03-06T22:25:00.133Z,22.8
2023-03-06T22:30:00.151Z,24.2
2023-03-06T22:35:00.130Z,23.3
2023-03-06T22:40:00.136Z,24.5
2023-03-06T22:45:00.099Z,27.3
2023-03-06T22:50:00.117Z,23.6
2023-03-06T22:55:00.140Z,23.6
2023-03-06T23:00:00.140Z,22.5
2023-03-06T23:05:00.138Z,23.9
2023-03-06T23:10:00.132Z,24.3
2023-03-06T23:15:00.224Z,22.7
2023-03-06T23:20:00.112Z,22.9
2023-03-06T23:25:00.115Z,22.9
2023-03-06T23:30:00.141Z,22.3
2023-03-06T23:35:00.124Z,24.4
2023-03-06T23:40:00.147Z,24.6
2023-03-06T23:45:00.169Z,25.8
2023-03-06T23:50:00.170Z,23.3
2023-03-06T23:55:00.146Z,23.3
